createdAt,value
2019-04-05T00:01:12.124Z,22.00
2019-04-05T00:03:40.531Z,21.70
2019-04-05T00:06:09.152Z,23.62
2019-04-05T00:08:37.779Z,22.70
2019-04-05T00:11:06.337Z,23.40
2019-04-05T00:13:34.753Z,26.00
2019-04-05T00:16:03.136Z,22.50
2019-04-05T00:18:31.532Z,23.02
2019-04-05T00:20:59.912Z,24.43
2019-04-05T00:23:28.536Z,24.75
2019-04-05T00:25:58.716Z,24.55
2019-04-05T00:28:27.352Z,22.82
2019-04-05T00:30:55.752Z,24.20
2019-04-05T00:33:24.134Z,24.05
2019-04-05T00:35:52.761Z,24.05
2019-04-05T00:38:21.145Z,25.43
2019-04-05T00:40:49.540Z,25.35
2019-04-05T00:43:17.936Z,25.92
2019-04-05T00:45:46.514Z,23.80
2019-04-05T00:48:14.892Z,23.60
2019-04-05T00:50:43.299Z,24.60
2019-04-05T00:53:11.699Z,21.90
2019-04-05T00:55:40.160Z,26.12
2019-04-05T00:58:08.566Z,25.00
2019-04-05T01:00:37.037Z,24.45
2019-04-05T01:03:05.427Z,26.07
2019-04-05T01:05:33.994Z,23.80
2019-04-05T01:08:02.371Z,22.22
2019-04-05T01:10:30.844Z,25.85
2019-04-05T01:12:59.729Z,23.35
2019-04-05T01:15:40.002Z,25.70
2019-04-05T01:17:58.248Z,26.60
2019-04-05T01:20:28.656Z,27.13
2019-04-05T01:22:58.880Z,26.42
2019-04-05T01:25:28.151Z,25.60
2019-04-05T01:27:56.629Z,25.68
2019-04-05T01:30:25.030Z,23.77
2019-04-05T01:32:53.649Z,24.63
2019-04-05T01:35:22.038Z,27.22
2019-04-05T01:37:51.108Z,24.60
2019-04-05T01:40:19.511Z,23.27
2019-04-05T01:42:48.342Z,25.62
2019-04-05T01:45:16.740Z,24.95
2019-04-05T01:47:45.144Z,25.20
2019-04-05T01:50:14.316Z,25.85
2019-04-05T01:52:42.896Z,25.05
2019-04-05T01:55:11.527Z,26.35
2019-04-05T01:57:39.918Z,24.50
2019-04-05T02:00:10.718Z,25.92
2019-04-05T02:02:39.245Z,27.62
2019-04-05T02:05:09.173Z,27.02
2019-04-05T02:07:38.523Z,27.65
2019-04-05T02:10:08.610Z,28.70
2019-04-05T02:12:37.477Z,28.10
2019-04-05T02:15:08.196Z,28.80
2019-04-05T02:17:36.943Z,28.83
2019-04-05T02:20:09.936Z,29.00
2019-04-05T02:22:38.342Z,25.30
2019-04-05T02:25:07.454Z,27.15
2019-04-05T02:27:35.917Z,29.45
2019-04-05T02:30:06.166Z,29.30
2019-04-05T02:32:34.549Z,30.02
2019-04-05T02:35:03.015Z,27.00
2019-04-05T02:37:31.422Z,28.90
2019-04-05T02:39:59.860Z,29.10
2019-04-05T02:42:29.417Z,27.90
2019-04-05T02:44:59.865Z,29.30
2019-04-05T02:47:28.910Z,27.42
2019-04-05T02:49:58.339Z,26.75
2019-04-05T02:52:28.282Z,24.37
2019-04-05T02:54:57.809Z,29.67
2019-04-05T02:57:27.145Z,29.10
2019-04-05T02:59:55.871Z,30.52
2019-04-05T03:02:25.260Z,27.42
2019-04-05T03:04:53.646Z,27.77
2019-04-05T03:07:22.113Z,25.90
2019-04-05T03:09:50.893Z,24.72
2019-04-05T03:12:19.760Z,26.70
2019-04-05T03:14:48.581Z,29.10
2019-04-05T03:17:17.414Z,27.75
2019-04-05T03:19:48.256Z,29.05
2019-04-05T03:22:16.909Z,29.23
2019-04-05T03:24:46.450Z,27.15
2019-04-05T03:27:17.914Z,28.60
2019-04-05T03:29:46.530Z,22.20
2019-04-05T03:32:15.654Z,28.35
2019-04-05T03:34:44.290Z,22.95
2019-04-05T03:37:13.621Z,25.40
2019-04-05T03:39:42.553Z,28.87
2019-04-05T03:42:11.395Z,26.68
2019-04-05T03:44:40.123Z,23.98
2019-04-05T03:47:08.997Z,28.87
2019-04-05T03:49:37.457Z,26.57
2019-04-05T03:52:06.481Z,21.50
2019-04-05T03:54:35.253Z,26.60
2019-04-05T03:57:04.379Z,27.90
2019-04-05T03:59:32.783Z,24.75
2019-04-05T04:02:01.241Z,28.75
2019-04-05T04:04:30.173Z,24.85
2019-04-05T04:06:58.705Z,24.95
2019-04-05T04:09:27.181Z,26.10
2019-04-05T04:11:55.635Z,26.57
2019-04-05T04:14:24.112Z,23.85
2019-04-05T04:16:53.236Z,26.45
2019-04-05T04:19:21.788Z,20.12
2019-04-05T04:22:07.916Z,29.27
2019-04-05T04:24:37.461Z,25.77
2019-04-05T04:27:05.850Z,26.27
2019-04-05T04:29:34.257Z,29.63
2019-04-05T04:32:02.813Z,25.50
2019-04-05T04:34:31.984Z,22.93
2019-04-05T04:37:00.543Z,25.52
2019-04-05T04:39:29.288Z,26.07
2019-04-05T04:41:58.365Z,27.58
2019-04-05T04:44:26.764Z,25.12
2019-04-05T04:46:55.157Z,26.57
2019-04-05T04:49:25.335Z,26.33
2019-04-05T04:51:55.013Z,27.50
2019-04-05T04:54:23.484Z,26.87
2019-04-05T04:56:53.468Z,28.92
2019-04-05T04:59:23.268Z,23.90
2019-04-05T05:01:51.755Z,28.10
2019-04-05T05:04:20.209Z,27.87
2019-04-05T05:06:48.761Z,25.23
2019-04-05T05:09:17.148Z,28.30
2019-04-05T05:11:45.531Z,24.37
2019-04-05T05:14:14.204Z,27.60
2019-04-05T05:16:42.651Z,27.20
2019-04-05T05:19:12.784Z,29.18
2019-04-05T05:21:41.176Z,25.35
2019-04-05T05:24:10.365Z,26.73
2019-04-05T05:26:38.915Z,28.32
2019-04-05T05:29:07.795Z,26.85
2019-04-05T05:31:36.494Z,24.02
2019-04-05T05:34:06.417Z,28.98
2019-04-05T05:36:35.651Z,27.87
2019-04-05T05:39:06.648Z,27.93
2019-04-05T05:41:35.077Z,29.63
2019-04-05T05:44:03.522Z,27.20
2019-04-05T05:46:31.992Z,25.05
2019-04-05T05:49:00.397Z,28.80
2019-04-05T05:51:29.376Z,25.30
2019-04-05T05:53:57.828Z,28.25
2019-04-05T05:56:26.318Z,28.05
2019-04-05T05:58:58.856Z,26.17
2019-04-05T06:01:24.816Z,29.32
2019-04-05T06:03:53.192Z,26.62
2019-04-05T06:06:22.891Z,28.35
2019-04-05T06:08:51.296Z,28.75
2019-04-05T06:11:19.698Z,29.95
2019-04-05T06:13:48.089Z,28.92
2019-04-05T06:16:16.483Z,23.20
2019-04-05T06:18:44.874Z,29.67
2019-04-05T06:21:13.267Z,29.15
2019-04-05T06:23:41.662Z,28.32
2019-04-05T06:26:10.083Z,28.60
2019-04-05T06:28:39.621Z,25.72
2019-04-05T06:31:08.124Z,27.37
2019-04-05T06:33:36.518Z,22.70
2019-04-05T06:36:04.908Z,23.98
2019-04-05T06:38:33.300Z,27.00
2019-04-05T06:41:01.697Z,25.00
2019-04-05T06:43:30.319Z,26.07
2019-04-05T06:45:58.831Z,25.60
2019-04-05T06:48:29.291Z,26.07
2019-04-05T06:50:57.616Z,25.45
2019-04-05T06:53:26.021Z,25.48
2019-04-05T06:55:54.400Z,26.75
2019-04-05T06:58:28.919Z,28.65
2019-04-05T07:00:57.182Z,26.42
2019-04-05T07:03:23.054Z,26.07
2019-04-05T07:05:51.431Z,24.60
2019-04-05T07:08:19.841Z,28.90
2019-04-05T07:10:48.321Z,24.30
2019-04-05T07:13:16.723Z,27.25
2019-04-05T07:15:45.132Z,26.77
2019-04-05T07:18:13.550Z,35.78
2019-04-05T07:20:41.933Z,32.90
2019-04-05T07:23:10.332Z,31.23
2019-04-05T07:25:38.734Z,25.90
2019-04-05T07:28:07.120Z,26.85
2019-04-05T07:30:35.577Z,28.98
2019-04-05T07:33:04.217Z,26.00
2019-04-05T07:35:33.952Z,23.80
2019-04-05T07:38:02.680Z,25.52
2019-04-05T07:40:31.151Z,25.62
2019-04-05T07:42:59.548Z,22.70
2019-04-05T07:45:27.940Z,26.42
2019-04-05T07:47:56.340Z,25.75
2019-04-05T07:50:24.728Z,24.30
2019-04-05T07:52:53.360Z,24.60
2019-04-05T07:55:21.761Z,23.32
2019-04-05T07:57:50.154Z,25.00
2019-04-05T08:00:47.268Z,24.00
2019-04-05T08:03:15.728Z,24.65
2019-04-05T08:05:44.761Z,24.92
2019-04-05T08:08:16.234Z,24.00
2019-04-05T08:10:45.969Z,24.65
2019-04-05T08:13:15.470Z,25.75
2019-04-05T08:15:44.030Z,24.07
2019-04-05T08:18:12.441Z,24.80
2019-04-05T08:20:40.823Z,24.82
2019-04-05T08:23:09.236Z,23.25
2019-04-05T08:25:37.641Z,24.47
2019-04-05T08:28:06.786Z,23.83
2019-04-05T08:30:35.305Z,24.18
2019-04-05T08:33:03.924Z,25.27
2019-04-05T08:35:32.316Z,23.57
2019-04-05T08:38:00.707Z,25.68
2019-04-05T08:40:29.102Z,24.50
2019-04-05T08:42:57.497Z,25.23
2019-04-05T08:45:25.889Z,24.98
2019-04-05T08:47:54.296Z,24.82
2019-04-05T08:50:22.685Z,25.57
2019-04-05T08:52:51.082Z,23.85
2019-04-05T08:55:19.478Z,25.77
2019-04-05T08:57:48.196Z,27.48
2019-04-05T09:00:17.077Z,24.47
2019-04-05T09:02:45.512Z,26.62
2019-04-05T09:05:14.014Z,27.13
2019-04-05T09:07:42.407Z,28.57
2019-04-05T09:10:10.809Z,27.30
2019-04-05T09:12:39.202Z,29.00
2019-04-05T09:15:08.036Z,29.27
2019-04-05T09:17:36.425Z,26.73
2019-04-05T09:20:05.898Z,27.75
2019-04-05T09:22:34.365Z,25.35
2019-04-05T09:25:02.817Z,25.70
2019-04-05T09:27:31.220Z,27.05
2019-04-05T09:29:59.620Z,24.92
2019-04-05T09:32:28.019Z,25.92
2019-04-05T09:34:56.423Z,25.37
2019-04-05T09:37:24.820Z,24.10
2019-04-05T09:39:53.651Z,24.12
2019-04-05T09:42:22.082Z,24.20
2019-04-05T09:44:50.482Z,23.50
2019-04-05T09:47:18.869Z,23.47
2019-04-05T09:49:47.273Z,23.32
2019-04-05T09:52:15.660Z,20.95
2019-04-05T09:54:44.069Z,20.72
2019-04-05T09:57:12.696Z,22.37
2019-04-05T09:59:41.335Z,21.57
2019-04-05T10:02:09.962Z,19.67
2019-04-05T10:04:38.371Z,19.07
2019-04-05T10:07:06.825Z,17.12
2019-04-05T10:09:35.224Z,20.30
2019-04-05T10:12:03.794Z,20.75
2019-04-05T10:14:32.192Z,19.00
2019-04-05T10:17:00.604Z,18.82
2019-04-05T10:19:29.033Z,18.45
2019-04-05T10:21:57.448Z,17.62
2019-04-05T10:24:26.049Z,19.12
2019-04-05T10:26:54.456Z,17.42
2019-04-05T10:29:23.083Z,17.67
2019-04-05T10:31:51.496Z,17.45
2019-04-05T10:34:19.903Z,16.67
2019-04-05T10:36:48.328Z,16.62
2019-04-05T10:39:16.730Z,16.27
2019-04-05T10:41:45.131Z,17.85
2019-04-05T10:44:15.294Z,15.93
2019-04-05T10:46:43.706Z,16.65
2019-04-05T10:49:14.944Z,17.50
2019-04-05T10:51:42.232Z,17.40
2019-04-05T10:54:10.617Z,16.73
2019-04-05T10:56:39.026Z,16.15
2019-04-05T10:59:07.419Z,16.20
2019-04-05T11:01:35.825Z,16.60
2019-04-05T11:04:04.219Z,15.28
2019-04-05T11:06:32.645Z,14.87
2019-04-05T11:09:01.044Z,17.57
2019-04-05T11:11:29.462Z,18.37
2019-04-05T11:13:57.884Z,19.00
2019-04-05T11:16:26.308Z,18.50
2019-04-05T11:18:54.691Z,18.10
2019-04-05T11:21:24.428Z,19.40
2019-04-05T11:23:53.625Z,17.50
2019-04-05T11:26:23.190Z,18.92
2019-04-05T11:28:51.784Z,17.82
2019-04-05T11:31:20.413Z,17.60
2019-04-05T11:33:48.968Z,18.40
2019-04-05T11:36:17.637Z,18.05
2019-04-05T11:38:49.986Z,18.80
2019-04-05T11:41:17.737Z,19.70
2019-04-05T11:43:48.065Z,18.52
2019-04-05T11:46:18.263Z,17.48
2019-04-05T11:48:47.732Z,16.27
2019-04-05T11:51:16.148Z,17.48
2019-04-05T11:53:44.559Z,16.67
2019-04-05T11:56:14.956Z,18.32
2019-04-05T11:58:44.827Z,17.52
2019-04-05T12:01:14.958Z,17.12
2019-04-05T12:03:43.361Z,16.82
2019-04-05T12:06:11.768Z,17.87
2019-04-05T12:08:40.444Z,17.65
2019-04-05T12:11:08.798Z,17.52
2019-04-05T12:13:37.794Z,17.90
2019-04-05T12:16:07.282Z,19.73
2019-04-05T12:18:36.386Z,18.73
2019-04-05T12:21:05.764Z,17.98
2019-04-05T12:23:34.280Z,17.98
2019-04-05T12:26:04.787Z,17.52
2019-04-05T12:28:33.056Z,19.02
2019-04-05T12:31:01.482Z,19.07
2019-04-05T12:33:30.138Z,18.60
2019-04-05T12:35:58.558Z,18.52
2019-04-05T12:38:33.709Z,18.15
2019-04-05T12:41:03.236Z,18.67
2019-04-05T12:43:31.895Z,18.60
2019-04-05T12:46:00.299Z,20.32
2019-04-05T12:48:28.737Z,18.35
2019-04-05T12:51:01.311Z,19.77
2019-04-05T12:53:29.542Z,18.07
2019-04-05T12:55:57.934Z,18.57
2019-04-05T12:58:26.749Z,19.15
2019-04-05T13:00:56.213Z,20.97
2019-04-05T13:03:25.509Z,19.65
2019-04-05T13:05:56.828Z,19.75
2019-04-05T13:08:24.041Z,21.33
2019-04-05T13:10:55.524Z,20.68
2019-04-05T13:13:22.598Z,19.67
2019-04-05T13:15:52.979Z,21.52
2019-04-05T13:18:21.387Z,19.75
2019-04-05T13:20:49.772Z,20.65
2019-04-05T13:23:18.180Z,20.95
2019-04-05T13:25:46.570Z,22.05
2019-04-05T13:28:18.633Z,21.40
2019-04-05T13:30:48.243Z,20.45
2019-04-05T13:33:17.093Z,20.15
2019-04-05T13:35:45.492Z,21.20
2019-04-05T13:38:13.896Z,18.80
2019-04-05T13:40:42.288Z,26.90
2019-04-05T13:43:10.705Z,21.93
2019-04-05T13:45:39.137Z,21.07
2019-04-05T13:48:09.013Z,23.35
2019-04-05T13:50:41.377Z,22.22
2019-04-05T13:55:35.932Z,21.25
2019-04-05T13:58:04.402Z,21.15
2019-04-05T14:00:32.796Z,22.00
2019-04-05T14:03:01.428Z,22.35
2019-04-05T14:05:30.061Z,22.60
2019-04-05T14:08:09.909Z,23.02
2019-04-05T14:10:28.589Z,23.45
2019-04-05T14:12:56.997Z,23.27
2019-04-05T14:15:25.409Z,21.42
2019-04-05T14:17:53.788Z,22.85
2019-04-05T14:20:24.417Z,23.77
2019-04-05T14:22:52.443Z,22.00
2019-04-05T14:25:20.871Z,22.58
2019-04-05T14:27:49.277Z,21.55
2019-04-05T14:30:18.048Z,22.70
2019-04-05T14:32:46.445Z,22.22
2019-04-05T14:35:14.922Z,24.27
2019-04-05T14:37:43.317Z,23.65
2019-04-05T14:40:14.266Z,22.20
2019-04-05T14:42:44.891Z,22.60
2019-04-05T14:45:13.624Z,23.30
2019-04-05T14:47:42.116Z,24.67
2019-04-05T14:50:11.725Z,23.50
2019-04-05T14:52:40.125Z,23.27
2019-04-05T14:55:08.609Z,22.30
2019-04-05T14:57:37.011Z,23.80
2019-04-05T15:00:07.600Z,23.12
2019-04-05T15:05:04.699Z,22.52
2019-04-05T15:07:33.098Z,23.00
2019-04-05T15:10:03.681Z,23.25
2019-04-05T15:12:31.622Z,22.07
2019-04-05T15:15:00.012Z,20.85
2019-04-05T15:17:28.441Z,21.52
2019-04-05T15:19:56.832Z,24.57
2019-04-05T15:22:27.577Z,23.75
2019-04-05T15:24:55.369Z,23.35
2019-04-05T15:27:23.813Z,23.62
2019-04-05T15:29:55.317Z,24.23
2019-04-05T15:32:25.471Z,22.55
2019-04-05T15:34:54.468Z,23.05
2019-04-05T15:37:22.863Z,23.27
2019-04-05T15:39:51.256Z,29.25
2019-04-05T15:42:19.666Z,29.12
2019-04-05T15:44:48.068Z,22.35
2019-04-05T15:47:16.469Z,22.62
2019-04-05T15:49:44.864Z,22.58
2019-04-05T15:52:19.128Z,23.38
2019-04-05T15:54:43.636Z,25.95
2019-04-05T15:57:12.067Z,23.87
2019-04-05T15:59:40.539Z,24.57
2019-04-05T16:02:08.951Z,24.63
2019-04-05T16:04:37.344Z,23.70
2019-04-05T16:07:05.890Z,24.20
2019-04-05T16:09:34.390Z,26.30
2019-04-05T16:12:02.818Z,24.92
2019-04-05T16:14:31.432Z,24.47
2019-04-05T16:16:59.849Z,24.50
2019-04-05T16:19:28.299Z,26.40
2019-04-05T16:21:56.688Z,24.02
2019-04-05T16:24:25.105Z,25.60
2019-04-05T16:26:53.508Z,25.27
2019-04-05T16:29:21.909Z,24.77
2019-04-05T16:31:50.565Z,24.23
2019-04-05T16:34:18.970Z,24.32
2019-04-05T16:36:47.378Z,25.60
2019-04-05T16:39:17.432Z,24.45
2019-04-05T16:41:45.844Z,23.67
2019-04-05T16:44:14.291Z,27.58
2019-04-05T16:46:42.695Z,24.95
2019-04-05T16:49:11.108Z,26.57
2019-04-05T16:51:39.510Z,26.37
2019-04-05T16:54:07.921Z,25.75
2019-04-05T16:56:36.345Z,25.68
2019-04-05T16:59:05.108Z,26.35
2019-04-05T17:01:33.524Z,25.68
2019-04-05T17:04:01.934Z,25.85
2019-04-05T17:06:30.331Z,25.95
2019-04-05T17:08:58.745Z,24.35
2019-04-05T17:11:27.131Z,25.85
2019-04-05T17:13:59.413Z,26.52
2019-04-05T17:16:25.654Z,26.40
2019-04-05T17:18:54.099Z,27.73
2019-04-05T17:21:22.519Z,26.68
2019-04-05T17:23:50.929Z,26.87
2019-04-05T17:26:19.545Z,27.60
2019-04-05T17:28:47.957Z,27.95
2019-04-05T17:31:16.397Z,27.35
2019-04-05T17:33:44.793Z,28.90
2019-04-05T17:36:13.204Z,29.45
2019-04-05T17:38:41.633Z,29.42
2019-04-05T17:41:10.049Z,26.45
2019-04-05T17:43:38.464Z,27.75
2019-04-05T17:46:06.865Z,28.98
2019-04-05T17:48:35.269Z,26.30
2019-04-05T17:51:03.677Z,29.85
2019-04-05T17:53:32.161Z,28.30
2019-04-05T17:56:01.185Z,30.95
2019-04-05T17:58:31.481Z,28.20
2019-04-05T18:01:01.160Z,31.30
2019-04-05T18:03:29.555Z,31.77
2019-04-05T18:05:57.950Z,31.33
2019-04-05T18:08:26.344Z,30.90
2019-04-05T18:10:55.006Z,32.80
2019-04-05T18:13:23.379Z,33.75
2019-04-05T18:15:53.080Z,31.25
2019-04-05T18:18:21.620Z,33.02
2019-04-05T18:20:50.019Z,32.10
2019-04-05T18:23:25.063Z,31.75
2019-04-05T18:25:48.866Z,31.30
2019-04-05T18:28:17.315Z,32.35
2019-04-05T18:30:46.456Z,32.20
2019-04-05T18:33:14.851Z,31.27
2019-04-05T18:35:43.253Z,29.80
2019-04-05T18:38:11.643Z,30.92
2019-04-05T18:40:40.625Z,30.20
2019-04-05T18:43:09.183Z,29.77
2019-04-05T18:45:37.583Z,30.20
2019-04-05T18:48:06.310Z,26.35
2019-04-05T18:50:34.699Z,29.30
2019-04-05T18:53:03.088Z,29.95
2019-04-05T18:55:32.312Z,30.35
2019-04-05T18:58:00.711Z,31.75
2019-04-05T19:00:29.127Z,32.00
2019-04-05T19:02:57.512Z,34.10
2019-04-05T19:05:25.913Z,32.25
2019-04-05T19:07:54.342Z,33.70
2019-04-05T19:10:36.439Z,31.65
2019-04-05T19:12:54.471Z,32.00
2019-04-05T19:15:22.945Z,32.78
2019-04-05T19:17:51.345Z,34.08
2019-04-05T19:20:19.763Z,33.30
2019-04-05T19:22:48.171Z,32.55
2019-04-05T19:25:16.569Z,31.20
2019-04-05T19:27:45.077Z,33.70
2019-04-05T19:50:15.912Z,31.42
2019-04-05T19:52:44.329Z,32.73
2019-04-05T19:55:12.785Z,33.70
2019-04-05T19:57:41.217Z,31.85
2019-04-05T20:00:09.685Z,31.12
2019-04-05T20:02:38.109Z,30.37
2019-04-05T20:05:08.045Z,32.60
2019-04-05T20:07:36.458Z,34.27
2019-04-05T20:10:05.881Z,32.40
2019-04-05T20:12:34.302Z,33.90
2019-04-05T20:15:02.700Z,31.65
2019-04-05T20:17:31.104Z,34.15
2019-04-05T20:19:59.487Z,34.38
2019-04-05T20:22:27.904Z,34.58
2019-04-05T20:24:56.288Z,29.63
2019-04-05T20:27:24.796Z,34.65
2019-04-05T20:29:53.232Z,32.48
2019-04-05T20:32:21.645Z,34.88
2019-04-05T20:34:50.045Z,34.38
2019-04-05T20:37:18.452Z,31.80
2019-04-05T20:39:46.839Z,33.38
2019-04-05T20:42:15.244Z,34.20
2019-04-05T20:44:43.640Z,34.53
2019-04-05T20:47:12.028Z,32.90
2019-04-05T20:49:40.504Z,33.38
2019-04-05T20:52:08.896Z,33.78
2019-04-05T20:54:37.290Z,33.08
2019-04-05T20:57:05.685Z,34.03
2019-04-05T20:59:34.085Z,33.45
2019-04-05T21:02:03.342Z,33.98
2019-04-05T21:04:31.808Z,31.33
2019-04-05T21:07:00.194Z,31.35
2019-04-05T21:09:28.585Z,28.02
2019-04-05T21:11:56.972Z,31.25
2019-04-05T21:14:25.411Z,31.48
2019-04-05T21:16:53.796Z,29.80
2019-04-05T21:19:22.192Z,32.42
2019-04-05T21:21:52.132Z,32.67
2019-04-05T21:24:20.616Z,31.82
2019-04-05T21:26:49.013Z,35.43
2019-04-05T21:29:17.640Z,37.10
2019-04-05T21:31:46.098Z,38.15
2019-04-05T21:34:14.512Z,37.73
2019-04-05T21:36:44.541Z,40.30
2019-04-05T21:39:13.180Z,30.43
2019-04-05T21:41:41.572Z,34.53
2019-04-05T21:44:10.200Z,34.90
2019-04-05T21:46:38.605Z,33.65
2019-04-05T21:49:07.004Z,31.23
2019-04-05T21:51:35.392Z,35.25
2019-04-05T21:54:03.796Z,33.63
2019-04-05T21:56:32.233Z,31.17
2019-04-05T21:59:00.682Z,35.08
2019-04-05T22:01:29.147Z,33.80
2019-04-05T22:03:57.563Z,33.35
2019-04-05T22:06:25.954Z,30.00
2019-04-05T22:08:54.344Z,32.98
2019-04-05T22:11:22.727Z,33.75
2019-04-05T22:13:51.190Z,33.98
2019-04-05T22:16:19.675Z,30.27
2019-04-05T22:18:48.086Z,30.30
2019-04-05T22:21:16.471Z,33.98
2019-04-05T22:23:44.850Z,33.58
2019-04-05T22:26:13.249Z,35.90
2019-04-05T22:28:41.629Z,36.28
2019-04-05T22:31:10.038Z,34.95
2019-04-05T22:33:38.432Z,35.90
2019-04-05T22:36:06.828Z,35.05
2019-04-05T22:38:35.220Z,34.65
2019-04-05T22:41:03.854Z,34.70
2019-04-05T22:43:32.243Z,36.53
2019-04-05T22:46:00.646Z,35.60
2019-04-05T22:48:29.120Z,32.83
2019-04-05T22:50:57.752Z,34.13
2019-04-05T22:53:26.155Z,34.48
2019-04-05T22:55:54.557Z,37.20
2019-04-05T22:58:22.976Z,35.58
2019-04-05T23:00:51.368Z,35.52
2019-04-05T23:03:19.760Z,35.00
2019-04-05T23:05:48.164Z,32.00
2019-04-05T23:08:16.548Z,35.45
2019-04-05T23:10:44.949Z,33.28
2019-04-05T23:13:13.340Z,33.63
2019-04-05T23:15:41.742Z,33.45
2019-04-05T23:18:10.147Z,35.50
2019-04-05T23:20:38.598Z,34.55
2019-04-05T23:23:06.993Z,33.00
2019-04-05T23:25:35.396Z,35.03
2019-04-05T23:28:03.770Z,36.60
2019-04-05T23:30:33.169Z,35.50
2019-04-05T23:33:01.548Z,33.92
2019-04-05T23:35:29.954Z,33.75
2019-04-05T23:37:58.364Z,34.88
2019-04-05T23:40:26.755Z,34.53
2019-04-05T23:42:55.145Z,34.63
2019-04-05T23:45:23.541Z,32.50
2019-04-05T23:47:51.920Z,34.20
2019-04-05T23:50:20.347Z,32.23
2019-04-05T23:52:48.731Z,36.95
2019-04-05T23:55:17.144Z,33.53
2019-04-05T23:57:45.523Z,34.67
